sensor_id;sensor_type;location;lat;lon;timestamp;temperature;humidity
40123;DHT22;25832;45.490;4.912;2023-04-07T00:00:26;4.90;99.90
40123;DHT22;25832;45.490;4.912;2023-04-07T00:02:52;5.00;99.90
40123;DHT22;25832;45.490;4.912;2023-04-07T00:05:18;5.20;99.90
40123;DHT22;25832;45.490;4.912;2023-04-07T00:07:44;5.20;99.90
40123;DHT22;25832;45.490;4.912;2023-04-07T00:10:09;5.20;99.90
40123;DHT22;25832;45.490;4.912;2023-04-07T00:12:35;5.20;99.90
40123;DHT22;25832;45.490;4.912;2023-04-07T00:15:01;5.10;99.90
40123;DHT22;25832;45.490;4.912;2023-04-07T00:17:27;5.10;99.90
40123;DHT22;25832;45.490;4.912;2023-04-07T00:19:53;5.10;99.90
40123;DHT22;25832;45.490;4.912;2023-04-07T00:22:18;5.00;99.90
40123;DHT22;25832;45.490;4.912;2023-04-07T00:24:44;4.90;99.90
40123;DHT22;25832;45.490;4.912;2023-04-07T00:27:09;4.90;99.90
40123;DHT22;25832;45.490;4.912;2023-04-07T00:29:35;4.80;99.90
40123;DHT22;25832;45.490;4.912;2023-04-07T00:32:01;4.80;99.90
40123;DHT22;25832;45.490;4.912;2023-04-07T00:34:26;4.80;99.90
40123;DHT22;25832;45.490;4.912;2023-04-07T00:36:52;4.80;99.90
40123;DHT22;25832;45.490;4.912;2023-04-07T00:39:18;4.80;99.90
40123;DHT22;25832;45.490;4.912;2023-04-07T00:41:45;4.80;99.90
40123;DHT22;25832;45.490;4.912;2023-04-07T00:44:11;4.90;99.90
40123;DHT22;25832;45.490;4.912;2023-04-07T00:46:37;4.90;99.90
40123;DHT22;25832;45.490;4.912;2023-04-07T00:49:03;5.00;99.90
40123;DHT22;25832;45.490;4.912;2023-04-07T00:51:29;5.00;99.90
40123;DHT22;25832;45.490;4.912;2023-04-07T00:53:56;5.10;99.90
40123;DHT22;25832;45.490;4.912;2023-04-07T00:56:21;5.10;99.90
40123;DHT22;25832;45.490;4.912;2023-04-07T00:58:47;5.10;99.90
40123;DHT22;25832;45.490;4.912;2023-04-07T01:01:21;5.10;99.90
40123;DHT22;25832;45.490;4.912;2023-04-07T01:04:01;5.10;99.90
40123;DHT22;25832;45.490;4.912;2023-04-07T01:06:32;5.10;99.90
40123;DHT22;25832;45.490;4.912;2023-04-07T01:09:01;5.10;99.90
40123;DHT22;25832;45.490;4.912;2023-04-07T01:14:20;5.10;99.90
40123;DHT22;25832;45.490;4.912;2023-04-07T01:16:49;5.20;99.90
40123;DHT22;25832;45.490;4.912;2023-04-07T01:21:49;5.10;99.90
40123;DHT22;25832;45.490;4.912;2023-04-07T01:27:23;5.10;99.90
40123;DHT22;25832;45.490;4.912;2023-04-07T01:29:51;5.20;99.90
40123;DHT22;25832;45.490;4.912;2023-04-07T01:32:18;5.20;99.90
40123;DHT22;25832;45.490;4.912;2023-04-07T01:34:49;5.20;99.90
40123;DHT22;25832;45.490;4.912;2023-04-07T01:37:16;5.30;99.90
40123;DHT22;25832;45.490;4.912;2023-04-07T01:39:42;5.30;99.90
40123;DHT22;25832;45.490;4.912;2023-04-07T01:42:08;5.40;99.90
40123;DHT22;25832;45.490;4.912;2023-04-07T01:44:35;5.30;99.90
40123;DHT22;25832;45.490;4.912;2023-04-07T01:47:01;5.30;99.90
40123;DHT22;25832;45.490;4.912;2023-04-07T01:49:29;5.30;99.90
40123;DHT22;25832;45.490;4.912;2023-04-07T01:51:56;5.40;99.90
40123;DHT22;25832;45.490;4.912;2023-04-07T01:54:22;5.40;99.90
40123;DHT22;25832;45.490;4.912;2023-04-07T01:56:48;5.40;99.90
40123;DHT22;25832;45.490;4.912;2023-04-07T01:59:14;5.40;99.90
40123;DHT22;25832;45.490;4.912;2023-04-07T02:01:39;5.30;99.90
40123;DHT22;25832;45.490;4.912;2023-04-07T02:04:18;5.30;99.90
40123;DHT22;25832;45.490;4.912;2023-04-07T02:06:52;5.30;99.90
40123;DHT22;25832;45.490;4.912;2023-04-07T02:09:20;5.30;99.90
40123;DHT22;25832;45.490;4.912;2023-04-07T02:11:48;5.30;99.90
40123;DHT22;25832;45.490;4.912;2023-04-07T02:14:16;5.20;99.90
40123;DHT22;25832;45.490;4.912;2023-04-07T02:16:42;5.00;99.90
40123;DHT22;25832;45.490;4.912;2023-04-07T02:19:09;4.80;99.90
40123;DHT22;25832;45.490;4.912;2023-04-07T02:21:35;4.70;99.90
40123;DHT22;25832;45.490;4.912;2023-04-07T02:24:04;4.60;99.90
40123;DHT22;25832;45.490;4.912;2023-04-07T02:26:37;4.60;99.90
40123;DHT22;25832;45.490;4.912;2023-04-07T02:29:03;4.50;99.90
40123;DHT22;25832;45.490;4.912;2023-04-07T02:31:29;4.40;99.90
40123;DHT22;25832;45.490;4.912;2023-04-07T02:33:54;4.30;99.90
40123;DHT22;25832;45.490;4.912;2023-04-07T02:36:20;4.30;99.90
40123;DHT22;25832;45.490;4.912;2023-04-07T02:38:46;4.30;99.90
40123;DHT22;25832;45.490;4.912;2023-04-07T02:41:11;4.30;99.90
40123;DHT22;25832;45.490;4.912;2023-04-07T02:43:37;4.30;99.90
40123;DHT22;25832;45.490;4.912;2023-04-07T02:46:03;4.20;99.90
40123;DHT22;25832;45.490;4.912;2023-04-07T02:48:28;4.20;99.90
40123;DHT22;25832;45.490;4.912;2023-04-07T02:50:54;4.30;99.90
40123;DHT22;25832;45.490;4.912;2023-04-07T02:53:20;4.30;99.90
40123;DHT22;25832;45.490;4.912;2023-04-07T02:55:46;4.20;99.90
40123;DHT22;25832;45.490;4.912;2023-04-07T02:58:11;4.20;99.90
40123;DHT22;25832;45.490;4.912;2023-04-07T03:00:37;4.20;99.90
40123;DHT22;25832;45.490;4.912;2023-04-07T03:03:03;4.20;99.90
40123;DHT22;25832;45.490;4.912;2023-04-07T03:05:28;4.20;99.90
40123;DHT22;25832;45.490;4.912;2023-04-07T03:07:54;4.10;99.90
40123;DHT22;25832;45.490;4.912;2023-04-07T03:10:20;4.00;99.90
40123;DHT22;25832;45.490;4.912;2023-04-07T03:12:45;4.00;99.90
40123;DHT22;25832;45.490;4.912;2023-04-07T03:15:11;3.90;99.90
40123;DHT22;25832;45.490;4.912;2023-04-07T03:17:37;3.90;99.90
40123;DHT22;25832;45.490;4.912;2023-04-07T03:20:02;3.90;99.90
40123;DHT22;25832;45.490;4.912;2023-04-07T03:22:28;3.90;99.90
40123;DHT22;25832;45.490;4.912;2023-04-07T03:24:54;3.80;99.90
40123;DHT22;25832;45.490;4.912;2023-04-07T03:27:20;3.70;99.90
40123;DHT22;25832;45.490;4.912;2023-04-07T03:29:46;3.70;99.90
40123;DHT22;25832;45.490;4.912;2023-04-07T03:32:11;3.70;99.90
40123;DHT22;25832;45.490;4.912;2023-04-07T03:34:37;3.80;99.90
40123;DHT22;25832;45.490;4.912;2023-04-07T03:37:03;3.80;99.90
40123;DHT22;25832;45.490;4.912;2023-04-07T03:39:29;3.80;99.90
40123;DHT22;25832;45.490;4.912;2023-04-07T03:41:54;3.90;99.90
40123;DHT22;25832;45.490;4.912;2023-04-07T03:44:20;4.00;99.90
40123;DHT22;25832;45.490;4.912;2023-04-07T03:46:46;4.10;99.90
40123;DHT22;25832;45.490;4.912;2023-04-07T03:49:13;4.10;99.90
40123;DHT22;25832;45.490;4.912;2023-04-07T03:51:38;4.20;99.90
40123;DHT22;25832;45.490;4.912;2023-04-07T03:54:04;4.40;99.90
40123;DHT22;25832;45.490;4.912;2023-04-07T03:56:30;4.40;99.90
40123;DHT22;25832;45.490;4.912;2023-04-07T03:58:56;4.50;99.90
40123;DHT22;25832;45.490;4.912;2023-04-07T04:01:22;4.60;99.90
40123;DHT22;25832;45.490;4.912;2023-04-07T04:03:48;4.60;99.90
40123;DHT22;25832;45.490;4.912;2023-04-07T04:06:14;4.70;99.90
40123;DHT22;25832;45.490;4.912;2023-04-07T04:08:40;4.80;99.90
40123;DHT22;25832;45.490;4.912;2023-04-07T04:11:06;4.80;99.90
40123;DHT22;25832;45.490;4.912;2023-04-07T04:13:31;4.80;99.90
40123;DHT22;25832;45.490;4.912;2023-04-07T04:15:57;4.90;99.90
40123;DHT22;25832;45.490;4.912;2023-04-07T04:18:22;4.90;99.90
40123;DHT22;25832;45.490;4.912;2023-04-07T04:20:48;4.90;99.90
40123;DHT22;25832;45.490;4.912;2023-04-07T04:23:14;4.90;99.90
40123;DHT22;25832;45.490;4.912;2023-04-07T04:25:40;4.90;99.90
40123;DHT22;25832;45.490;4.912;2023-04-07T04:28:06;5.00;99.90
40123;DHT22;25832;45.490;4.912;2023-04-07T04:30:32;5.10;99.90
40123;DHT22;25832;45.490;4.912;2023-04-07T04:32:57;5.10;99.90
40123;DHT22;25832;45.490;4.912;2023-04-07T04:35:23;5.10;99.90
40123;DHT22;25832;45.490;4.912;2023-04-07T04:37:49;5.00;99.90
40123;DHT22;25832;45.490;4.912;2023-04-07T04:40:15;5.00;99.90
40123;DHT22;25832;45.490;4.912;2023-04-07T04:42:40;4.90;99.90
40123;DHT22;25832;45.490;4.912;2023-04-07T04:45:07;4.90;99.90
40123;DHT22;25832;45.490;4.912;2023-04-07T04:47:32;4.90;99.90
40123;DHT22;25832;45.490;4.912;2023-04-07T04:49:58;4.90;99.90
40123;DHT22;25832;45.490;4.912;2023-04-07T04:52:24;5.00;99.90
40123;DHT22;25832;45.490;4.912;2023-04-07T04:54:49;5.00;99.90
40123;DHT22;25832;45.490;4.912;2023-04-07T04:57:15;5.10;99.90
40123;DHT22;25832;45.490;4.912;2023-04-07T04:59:41;5.10;99.90
40123;DHT22;25832;45.490;4.912;2023-04-07T05:02:07;5.20;99.90
40123;DHT22;25832;45.490;4.912;2023-04-07T05:04:32;5.20;99.90
40123;DHT22;25832;45.490;4.912;2023-04-07T05:06:58;5.20;99.90
40123;DHT22;25832;45.490;4.912;2023-04-07T05:09:24;5.20;99.90
40123;DHT22;25832;45.490;4.912;2023-04-07T05:11:49;5.10;99.90
40123;DHT22;25832;45.490;4.912;2023-04-07T05:14:15;5.10;99.90
40123;DHT22;25832;45.490;4.912;2023-04-07T05:16:41;5.10;99.90
40123;DHT22;25832;45.490;4.912;2023-04-07T05:19:07;5.00;99.90
40123;DHT22;25832;45.490;4.912;2023-04-07T05:21:32;5.00;99.90
40123;DHT22;25832;45.490;4.912;2023-04-07T05:23:58;4.90;99.90
40123;DHT22;25832;45.490;4.912;2023-04-07T05:26:23;5.00;99.90
40123;DHT22;25832;45.490;4.912;2023-04-07T05:28:49;5.00;99.90
40123;DHT22;25832;45.490;4.912;2023-04-07T05:31:15;5.00;99.90
40123;DHT22;25832;45.490;4.912;2023-04-07T05:33:40;5.10;99.90
40123;DHT22;25832;45.490;4.912;2023-04-07T05:36:06;5.10;99.90
40123;DHT22;25832;45.490;4.912;2023-04-07T05:38:32;5.10;99.90
40123;DHT22;25832;45.490;4.912;2023-04-07T05:40:58;5.20;99.90
40123;DHT22;25832;45.490;4.912;2023-04-07T05:43:23;5.30;99.90
40123;DHT22;25832;45.490;4.912;2023-04-07T05:45:49;5.30;99.90
40123;DHT22;25832;45.490;4.912;2023-04-07T05:48:15;5.30;99.90
40123;DHT22;25832;45.490;4.912;2023-04-07T05:50:41;5.30;99.90
40123;DHT22;25832;45.490;4.912;2023-04-07T05:53:07;5.30;99.90
40123;DHT22;25832;45.490;4.912;2023-04-07T05:55:32;5.30;99.90
40123;DHT22;25832;45.490;4.912;2023-04-07T05:57:58;5.30;99.90
40123;DHT22;25832;45.490;4.912;2023-04-07T06:00:24;5.30;99.90
40123;DHT22;25832;45.490;4.912;2023-04-07T06:02:50;5.30;99.90
40123;DHT22;25832;45.490;4.912;2023-04-07T06:05:16;5.30;99.90
40123;DHT22;25832;45.490;4.912;2023-04-07T06:07:41;5.40;99.90
40123;DHT22;25832;45.490;4.912;2023-04-07T06:10:07;5.50;99.90
40123;DHT22;25832;45.490;4.912;2023-04-07T06:12:33;5.80;99.90
40123;DHT22;25832;45.490;4.912;2023-04-07T06:14:59;6.20;99.90
40123;DHT22;25832;45.490;4.912;2023-04-07T06:17:24;6.60;99.90
40123;DHT22;25832;45.490;4.912;2023-04-07T06:19:50;7.10;99.90
40123;DHT22;25832;45.490;4.912;2023-04-07T06:22:16;7.50;99.90
40123;DHT22;25832;45.490;4.912;2023-04-07T06:24:41;7.80;99.90
40123;DHT22;25832;45.490;4.912;2023-04-07T06:27:07;8.10;99.90
40123;DHT22;25832;45.490;4.912;2023-04-07T06:29:33;8.30;99.90
40123;DHT22;25832;45.490;4.912;2023-04-07T06:31:59;8.50;99.90
40123;DHT22;25832;45.490;4.912;2023-04-07T06:34:25;8.80;99.90
40123;DHT22;25832;45.490;4.912;2023-04-07T06:36:51;8.90;99.90
40123;DHT22;25832;45.490;4.912;2023-04-07T06:39:16;8.90;99.90
40123;DHT22;25832;45.490;4.912;2023-04-07T06:41:42;9.00;99.90
40123;DHT22;25832;45.490;4.912;2023-04-07T06:44:10;9.10;99.90
40123;DHT22;25832;45.490;4.912;2023-04-07T06:46:36;9.10;99.90
40123;DHT22;25832;45.490;4.912;2023-04-07T06:49:02;9.10;99.90
40123;DHT22;25832;45.490;4.912;2023-04-07T06:51:28;9.10;99.90
40123;DHT22;25832;45.490;4.912;2023-04-07T06:53:54;9.20;99.90
40123;DHT22;25832;45.490;4.912;2023-04-07T06:56:21;9.20;99.90
40123;DHT22;25832;45.490;4.912;2023-04-07T06:58:47;9.20;99.90
40123;DHT22;25832;45.490;4.912;2023-04-07T07:01:12;9.20;99.90
40123;DHT22;25832;45.490;4.912;2023-04-07T07:03:38;9.20;99.90
40123;DHT22;25832;45.490;4.912;2023-04-07T07:06:04;9.10;99.90
40123;DHT22;25832;45.490;4.912;2023-04-07T07:08:29;9.10;99.90
40123;DHT22;25832;45.490;4.912;2023-04-07T07:10:55;9.10;99.90
40123;DHT22;25832;45.490;4.912;2023-04-07T07:13:23;9.10;99.90
40123;DHT22;25832;45.490;4.912;2023-04-07T07:15:50;9.10;99.90
40123;DHT22;25832;45.490;4.912;2023-04-07T07:18:16;9.10;99.90
40123;DHT22;25832;45.490;4.912;2023-04-07T07:20:42;9.20;99.90
40123;DHT22;25832;45.490;4.912;2023-04-07T07:23:08;9.20;99.90
40123;DHT22;25832;45.490;4.912;2023-04-07T07:25:33;9.30;99.90
40123;DHT22;25832;45.490;4.912;2023-04-07T07:27:59;9.40;99.90
40123;DHT22;25832;45.490;4.912;2023-04-07T07:30:27;9.50;99.90
40123;DHT22;25832;45.490;4.912;2023-04-07T07:32:53;9.60;99.90
40123;DHT22;25832;45.490;4.912;2023-04-07T07:35:20;9.70;99.90
40123;DHT22;25832;45.490;4.912;2023-04-07T07:37:45;9.80;99.90
40123;DHT22;25832;45.490;4.912;2023-04-07T07:40:12;10.00;99.90
40123;DHT22;25832;45.490;4.912;2023-04-07T07:42:38;10.20;99.90
40123;DHT22;25832;45.490;4.912;2023-04-07T07:45:04;10.30;99.90
40123;DHT22;25832;45.490;4.912;2023-04-07T07:47:30;10.40;99.90
40123;DHT22;25832;45.490;4.912;2023-04-07T07:49:56;10.50;99.90
40123;DHT22;25832;45.490;4.912;2023-04-07T07:52:22;10.40;99.90
40123;DHT22;25832;45.490;4.912;2023-04-07T07:54:48;10.40;99.90
40123;DHT22;25832;45.490;4.912;2023-04-07T07:57:14;10.40;99.90
40123;DHT22;25832;45.490;4.912;2023-04-07T07:59:40;10.50;99.90
40123;DHT22;25832;45.490;4.912;2023-04-07T08:02:07;10.50;99.90
40123;DHT22;25832;45.490;4.912;2023-04-07T08:04:33;10.50;99.90
40123;DHT22;25832;45.490;4.912;2023-04-07T08:06:59;10.50;99.90
40123;DHT22;25832;45.490;4.912;2023-04-07T08:09:25;10.40;99.90
40123;DHT22;25832;45.490;4.912;2023-04-07T08:11:51;10.50;99.90
40123;DHT22;25832;45.490;4.912;2023-04-07T08:14:17;10.50;99.90
40123;DHT22;25832;45.490;4.912;2023-04-07T08:16:43;10.40;99.90
40123;DHT22;25832;45.490;4.912;2023-04-07T08:19:10;10.40;99.90
40123;DHT22;25832;45.490;4.912;2023-04-07T08:21:35;10.50;99.90
40123;DHT22;25832;45.490;4.912;2023-04-07T08:24:01;10.60;99.90
40123;DHT22;25832;45.490;4.912;2023-04-07T08:26:27;10.60;99.90
40123;DHT22;25832;45.490;4.912;2023-04-07T08:28:53;10.80;99.90
40123;DHT22;25832;45.490;4.912;2023-04-07T08:31:20;10.80;99.90
40123;DHT22;25832;45.490;4.912;2023-04-07T08:33:45;11.00;99.90
40123;DHT22;25832;45.490;4.912;2023-04-07T08:36:11;11.20;99.90
40123;DHT22;25832;45.490;4.912;2023-04-07T08:38:37;11.50;99.90
40123;DHT22;25832;45.490;4.912;2023-04-07T08:41:16;11.90;99.90
40123;DHT22;25832;45.490;4.912;2023-04-07T08:43:43;12.00;96.40
40123;DHT22;25832;45.490;4.912;2023-04-07T08:46:11;12.10;95.70
40123;DHT22;25832;45.490;4.912;2023-04-07T08:48:38;12.00;95.50
40123;DHT22;25832;45.490;4.912;2023-04-07T08:51:06;12.00;96.30
40123;DHT22;25832;45.490;4.912;2023-04-07T08:53:40;12.20;96.70
40123;DHT22;25832;45.490;4.912;2023-04-07T08:56:10;12.30;94.60
40123;DHT22;25832;45.490;4.912;2023-04-07T08:58:36;12.30;94.40
40123;DHT22;25832;45.490;4.912;2023-04-07T09:01:05;12.40;95.10
40123;DHT22;25832;45.490;4.912;2023-04-07T09:03:32;12.50;95.10
40123;DHT22;25832;45.490;4.912;2023-04-07T09:06:01;12.60;95.70
40123;DHT22;25832;45.490;4.912;2023-04-07T09:08:27;12.80;95.00
40123;DHT22;25832;45.490;4.912;2023-04-07T09:10:53;13.00;94.20
40123;DHT22;25832;45.490;4.912;2023-04-07T09:13:20;13.10;94.30
40123;DHT22;25832;45.490;4.912;2023-04-07T09:15:46;13.10;93.00
40123;DHT22;25832;45.490;4.912;2023-04-07T09:18:12;13.10;92.70
40123;DHT22;25832;45.490;4.912;2023-04-07T09:23:35;13.10;92.40
40123;DHT22;25832;45.490;4.912;2023-04-07T09:28:54;13.60;92.60
40123;DHT22;25832;45.490;4.912;2023-04-07T09:31:21;13.80;91.50
40123;DHT22;25832;45.490;4.912;2023-04-07T09:33:48;13.90;90.40
40123;DHT22;25832;45.490;4.912;2023-04-07T09:36:14;13.80;90.30
40123;DHT22;25832;45.490;4.912;2023-04-07T09:38:42;13.70;90.00
40123;DHT22;25832;45.490;4.912;2023-04-07T09:41:11;13.70;90.40
40123;DHT22;25832;45.490;4.912;2023-04-07T09:43:39;13.80;89.50
40123;DHT22;25832;45.490;4.912;2023-04-07T09:46:16;13.60;88.20
40123;DHT22;25832;45.490;4.912;2023-04-07T09:48:44;13.50;85.90
40123;DHT22;25832;45.490;4.912;2023-04-07T09:51:12;13.50;87.90
40123;DHT22;25832;45.490;4.912;2023-04-07T09:53:48;13.70;88.10
40123;DHT22;25832;45.490;4.912;2023-04-07T09:56:17;13.80;87.80
40123;DHT22;25832;45.490;4.912;2023-04-07T09:58:44;14.00;86.50
40123;DHT22;25832;45.490;4.912;2023-04-07T10:01:11;14.10;86.00
40123;DHT22;25832;45.490;4.912;2023-04-07T10:03:37;14.20;84.20
40123;DHT22;25832;45.490;4.912;2023-04-07T10:06:04;14.40;83.30
40123;DHT22;25832;45.490;4.912;2023-04-07T10:08:35;14.30;80.10
40123;DHT22;25832;45.490;4.912;2023-04-07T10:11:02;14.30;81.60
40123;DHT22;25832;45.490;4.912;2023-04-07T10:13:32;14.50;81.80
40123;DHT22;25832;45.490;4.912;2023-04-07T10:15:59;14.70;84.80
40123;DHT22;25832;45.490;4.912;2023-04-07T10:18:29;14.80;78.90
40123;DHT22;25832;45.490;4.912;2023-04-07T10:21:05;14.80;80.90
40123;DHT22;25832;45.490;4.912;2023-04-07T10:25:58;14.80;77.40
40123;DHT22;25832;45.490;4.912;2023-04-07T10:28:25;14.60;77.20
40123;DHT22;25832;45.490;4.912;2023-04-07T10:30:52;14.60;77.90
40123;DHT22;25832;45.490;4.912;2023-04-07T10:33:50;14.80;78.00
40123;DHT22;25832;45.490;4.912;2023-04-07T10:36:18;15.00;76.80
40123;DHT22;25832;45.490;4.912;2023-04-07T10:44:01;14.50;80.00
40123;DHT22;25832;45.490;4.912;2023-04-07T10:49:20;14.30;74.20
40123;DHT22;25832;45.490;4.912;2023-04-07T10:54:38;14.00;74.90
40123;DHT22;25832;45.490;4.912;2023-04-07T10:57:13;13.80;72.10
40123;DHT22;25832;45.490;4.912;2023-04-07T11:02:37;14.00;73.00
40123;DHT22;25832;45.490;4.912;2023-04-07T11:05:03;14.10;71.70
40123;DHT22;25832;45.490;4.912;2023-04-07T11:07:55;14.20;72.70
40123;DHT22;25832;45.490;4.912;2023-04-07T11:10:22;14.40;78.50
40123;DHT22;25832;45.490;4.912;2023-04-07T11:13:01;14.60;75.70
40123;DHT22;25832;45.490;4.912;2023-04-07T11:15:27;14.70;72.20
40123;DHT22;25832;45.490;4.912;2023-04-07T11:18:14;14.90;75.30
40123;DHT22;25832;45.490;4.912;2023-04-07T11:20:52;15.10;68.10
40123;DHT22;25832;45.490;4.912;2023-04-07T11:23:20;15.20;71.40
40123;DHT22;25832;45.490;4.912;2023-04-07T11:25:49;15.40;70.20
40123;DHT22;25832;45.490;4.912;2023-04-07T11:28:16;15.20;69.50
40123;DHT22;25832;45.490;4.912;2023-04-07T11:30:46;15.00;67.30
40123;DHT22;25832;45.490;4.912;2023-04-07T11:33:15;14.80;70.20
40123;DHT22;25832;45.490;4.912;2023-04-07T11:35:55;14.80;69.80
40123;DHT22;25832;45.490;4.912;2023-04-07T11:38:35;14.70;70.30
40123;DHT22;25832;45.490;4.912;2023-04-07T11:41:11;14.60;71.90
40123;DHT22;25832;45.490;4.912;2023-04-07T11:43:37;14.60;73.00
40123;DHT22;25832;45.490;4.912;2023-04-07T11:46:15;14.80;76.20
40123;DHT22;25832;45.490;4.912;2023-04-07T11:48:42;14.70;71.00
40123;DHT22;25832;45.490;4.912;2023-04-07T11:51:19;14.60;68.90
40123;DHT22;25832;45.490;4.912;2023-04-07T11:53:45;14.40;66.50
40123;DHT22;25832;45.490;4.912;2023-04-07T11:56:14;14.30;68.10
40123;DHT22;25832;45.490;4.912;2023-04-07T11:58:49;14.30;72.00
40123;DHT22;25832;45.490;4.912;2023-04-07T12:01:15;14.40;71.00
40123;DHT22;25832;45.490;4.912;2023-04-07T12:04:01;14.60;68.90
40123;DHT22;25832;45.490;4.912;2023-04-07T12:08:59;14.70;71.80
40123;DHT22;25832;45.490;4.912;2023-04-07T12:11:25;14.90;71.90
40123;DHT22;25832;45.490;4.912;2023-04-07T12:13:52;15.00;69.70
40123;DHT22;25832;45.490;4.912;2023-04-07T12:16:18;14.90;70.70
40123;DHT22;25832;45.490;4.912;2023-04-07T12:18:44;14.90;68.00
40123;DHT22;25832;45.490;4.912;2023-04-07T12:21:10;14.70;68.00
40123;DHT22;25832;45.490;4.912;2023-04-07T12:23:35;14.40;71.10
40123;DHT22;25832;45.490;4.912;2023-04-07T12:26:01;14.40;72.00
40123;DHT22;25832;45.490;4.912;2023-04-07T12:28:27;14.50;71.80
40123;DHT22;25832;45.490;4.912;2023-04-07T12:30:53;14.60;72.80
40123;DHT22;25832;45.490;4.912;2023-04-07T12:33:19;14.80;69.30
40123;DHT22;25832;45.490;4.912;2023-04-07T12:35:45;14.90;70.00
40123;DHT22;25832;45.490;4.912;2023-04-07T12:38:10;15.00;68.40
40123;DHT22;25832;45.490;4.912;2023-04-07T12:40:36;15.20;66.90
40123;DHT22;25832;45.490;4.912;2023-04-07T12:43:03;15.10;65.90
40123;DHT22;25832;45.490;4.912;2023-04-07T12:45:29;15.10;68.70
40123;DHT22;25832;45.490;4.912;2023-04-07T12:47:55;15.00;68.90
40123;DHT22;25832;45.490;4.912;2023-04-07T12:50:22;14.70;67.80
40123;DHT22;25832;45.490;4.912;2023-04-07T12:52:49;14.60;69.00
40123;DHT22;25832;45.490;4.912;2023-04-07T12:55:16;14.70;71.70
40123;DHT22;25832;45.490;4.912;2023-04-07T12:57:42;14.90;73.80
40123;DHT22;25832;45.490;4.912;2023-04-07T13:00:09;15.20;72.30
40123;DHT22;25832;45.490;4.912;2023-04-07T13:02:35;15.40;71.80
40123;DHT22;25832;45.490;4.912;2023-04-07T13:05:04;15.60;68.70
40123;DHT22;25832;45.490;4.912;2023-04-07T13:07:30;15.40;68.20
40123;DHT22;25832;45.490;4.912;2023-04-07T13:09:56;15.30;70.70
40123;DHT22;25832;45.490;4.912;2023-04-07T13:12:22;15.30;71.80
40123;DHT22;25832;45.490;4.912;2023-04-07T13:14:48;15.50;68.40
40123;DHT22;25832;45.490;4.912;2023-04-07T13:17:14;15.40;69.00
40123;DHT22;25832;45.490;4.912;2023-04-07T13:19:40;15.40;69.90
40123;DHT22;25832;45.490;4.912;2023-04-07T13:22:06;15.50;70.60
40123;DHT22;25832;45.490;4.912;2023-04-07T13:24:32;15.70;69.20
40123;DHT22;25832;45.490;4.912;2023-04-07T13:26:58;15.70;67.40
40123;DHT22;25832;45.490;4.912;2023-04-07T13:29:24;15.70;67.10
40123;DHT22;25832;45.490;4.912;2023-04-07T13:31:50;15.70;67.90
40123;DHT22;25832;45.490;4.912;2023-04-07T13:34:15;15.70;68.00
40123;DHT22;25832;45.490;4.912;2023-04-07T13:36:41;15.60;68.10
40123;DHT22;25832;45.490;4.912;2023-04-07T13:39:07;15.40;67.60
40123;DHT22;25832;45.490;4.912;2023-04-07T13:41:34;15.10;75.80
40123;DHT22;25832;45.490;4.912;2023-04-07T13:44:00;14.80;76.70
40123;DHT22;25832;45.490;4.912;2023-04-07T13:46:26;14.70;75.80
40123;DHT22;25832;45.490;4.912;2023-04-07T13:48:52;14.50;75.50
40123;DHT22;25832;45.490;4.912;2023-04-07T13:51:18;14.70;81.40
40123;DHT22;25832;45.490;4.912;2023-04-07T13:53:44;14.60;75.90
40123;DHT22;25832;45.490;4.912;2023-04-07T13:56:10;14.50;76.70
40123;DHT22;25832;45.490;4.912;2023-04-07T13:58:35;14.50;76.30
40123;DHT22;25832;45.490;4.912;2023-04-07T14:01:02;14.70;76.90
40123;DHT22;25832;45.490;4.912;2023-04-07T14:03:28;14.90;76.00
40123;DHT22;25832;45.490;4.912;2023-04-07T14:05:54;14.90;72.40
40123;DHT22;25832;45.490;4.912;2023-04-07T14:08:25;14.90;75.70
40123;DHT22;25832;45.490;4.912;2023-04-07T14:10:51;14.90;75.60
40123;DHT22;25832;45.490;4.912;2023-04-07T14:13:17;14.90;71.70
40123;DHT22;25832;45.490;4.912;2023-04-07T14:15:42;15.00;73.80
40123;DHT22;25832;45.490;4.912;2023-04-07T14:18:08;15.00;75.30
40123;DHT22;25832;45.490;4.912;2023-04-07T14:20:33;14.80;76.80
40123;DHT22;25832;45.490;4.912;2023-04-07T14:22:59;14.50;78.70
40123;DHT22;25832;45.490;4.912;2023-04-07T14:25:26;14.10;76.60
40123;DHT22;25832;45.490;4.912;2023-04-07T14:27:51;13.80;78.30
40123;DHT22;25832;45.490;4.912;2023-04-07T14:30:17;13.70;79.80
40123;DHT22;25832;45.490;4.912;2023-04-07T14:32:43;13.70;82.00
40123;DHT22;25832;45.490;4.912;2023-04-07T14:35:09;13.80;80.40
40123;DHT22;25832;45.490;4.912;2023-04-07T14:37:35;13.90;86.10
40123;DHT22;25832;45.490;4.912;2023-04-07T14:40:02;13.80;89.70
40123;DHT22;25832;45.490;4.912;2023-04-07T14:42:28;13.90;88.20
40123;DHT22;25832;45.490;4.912;2023-04-07T14:44:58;13.80;90.10
40123;DHT22;25832;45.490;4.912;2023-04-07T14:47:24;13.70;89.00
40123;DHT22;25832;45.490;4.912;2023-04-07T14:49:50;13.20;91.20
40123;DHT22;25832;45.490;4.912;2023-04-07T14:52:16;13.20;93.60
40123;DHT22;25832;45.490;4.912;2023-04-07T14:54:42;12.90;92.10
40123;DHT22;25832;45.490;4.912;2023-04-07T14:57:08;12.80;91.70
40123;DHT22;25832;45.490;4.912;2023-04-07T14:59:33;12.60;91.40
40123;DHT22;25832;45.490;4.912;2023-04-07T15:01:59;12.30;92.20
40123;DHT22;25832;45.490;4.912;2023-04-07T15:04:25;12.10;93.30
40123;DHT22;25832;45.490;4.912;2023-04-07T15:06:51;12.20;92.50
40123;DHT22;25832;45.490;4.912;2023-04-07T15:09:16;12.30;91.40
40123;DHT22;25832;45.490;4.912;2023-04-07T15:11:43;12.40;93.40
40123;DHT22;25832;45.490;4.912;2023-04-07T15:14:10;12.60;92.20
40123;DHT22;25832;45.490;4.912;2023-04-07T15:16:36;12.70;94.20
40123;DHT22;25832;45.490;4.912;2023-04-07T15:19:02;12.90;91.60
40123;DHT22;25832;45.490;4.912;2023-04-07T15:21:28;13.10;92.10
40123;DHT22;25832;45.490;4.912;2023-04-07T15:23:53;13.00;91.60
40123;DHT22;25832;45.490;4.912;2023-04-07T15:26:19;12.80;91.80
40123;DHT22;25832;45.490;4.912;2023-04-07T15:28:45;12.70;94.00
40123;DHT22;25832;45.490;4.912;2023-04-07T15:31:11;12.70;91.50
40123;DHT22;25832;45.490;4.912;2023-04-07T15:33:38;12.70;92.60
40123;DHT22;25832;45.490;4.912;2023-04-07T15:36:07;12.80;90.80
40123;DHT22;25832;45.490;4.912;2023-04-07T15:38:33;12.80;91.20
40123;DHT22;25832;45.490;4.912;2023-04-07T15:40:59;12.70;91.50
40123;DHT22;25832;45.490;4.912;2023-04-07T15:43:25;12.60;91.70
40123;DHT22;25832;45.490;4.912;2023-04-07T15:45:53;12.70;91.50
40123;DHT22;25832;45.490;4.912;2023-04-07T15:48:18;12.80;90.90
40123;DHT22;25832;45.490;4.912;2023-04-07T15:50:44;13.10;91.10
40123;DHT22;25832;45.490;4.912;2023-04-07T15:53:10;13.30;90.50
40123;DHT22;25832;45.490;4.912;2023-04-07T15:55:36;13.20;89.90
40123;DHT22;25832;45.490;4.912;2023-04-07T15:58:02;13.20;91.20
40123;DHT22;25832;45.490;4.912;2023-04-07T16:00:30;13.20;91.50
40123;DHT22;25832;45.490;4.912;2023-04-07T16:02:57;13.20;90.00
40123;DHT22;25832;45.490;4.912;2023-04-07T16:05:22;13.10;90.70
40123;DHT22;25832;45.490;4.912;2023-04-07T16:07:48;13.20;91.00